Weather at Eleftherios Venizelos International Airport

Public forecast

Using degrees Celsius for public forecast. Weather courtesy of forecast.io.

Current aviation weather report (METAR) for Eleftherios Venizelos International Airport

Retrieved 2021/08/04 14:50 UTC (27 minutes ago):

LGAV 041450Z 04007KT CAVOK 37/09 Q1012 NOSIG

Aviation forecast (TAF) for Eleftherios Venizelos International Airport

Retrieved 2021/08/04 12:12 UTC (3 hours ago):

TAF TAF LGAV 041100Z 0412/0512 VRB05KT CAVOK TEMPO 0412/0416 06010KT